createdAt,value
2017-05-29T00:00:10.565Z,70.89
2017-05-29T00:00:51.420Z,71.7
2017-05-29T00:01:32.100Z,71.02
2017-05-29T00:02:12.899Z,71.5
2017-05-29T00:02:53.642Z,71.12
2017-05-29T00:03:34.380Z,71.41
2017-05-29T00:04:15.221Z,70.92
2017-05-29T00:04:56.031Z,70.73
2017-05-29T00:05:36.830Z,71.12
2017-05-29T00:06:17.590Z,70.54
2017-05-29T00:06:58.357Z,71.12
2017-05-29T00:07:39.190Z,70.54
2017-05-29T00:08:19.957Z,70.63
2017-05-29T00:09:00.728Z,70.63
2017-05-29T00:09:41.534Z,70.63
2017-05-29T00:10:22.304Z,70.73
2017-05-29T00:11:03.749Z,70.34
2017-05-29T00:11:44.487Z,70.44
2017-05-29T00:12:25.287Z,70.25
2017-05-29T00:13:06.058Z,70.73
2017-05-29T00:13:46.761Z,70.34
2017-05-29T00:14:27.602Z,70.34
2017-05-29T00:15:08.419Z,70.34
2017-05-29T00:15:49.210Z,70.34
2017-05-29T00:16:30.006Z,70.34
2017-05-29T00:17:10.733Z,70.34
2017-05-29T00:17:51.490Z,70.44
2017-05-29T00:18:32.368Z,70.34
2017-05-29T00:19:13.121Z,70.44
2017-05-29T00:19:53.945Z,70.44
2017-05-29T00:20:34.726Z,70.92
2017-05-29T00:21:15.501Z,70.73
2017-05-29T00:21:56.249Z,70.54
2017-05-29T00:22:36.908Z,70.44
2017-05-29T00:23:17.605Z,70.54
2017-05-29T00:23:58.472Z,70.73
2017-05-29T00:24:39.207Z,70.92
2017-05-29T00:25:19.965Z,70.54
2017-05-29T00:26:00.692Z,71.02
2017-05-29T00:26:41.480Z,70.44
2017-05-29T00:27:22.286Z,70.54
2017-05-29T00:28:03.005Z,70.63
2017-05-29T00:28:43.792Z,70.44
2017-05-29T00:29:24.627Z,70.92
2017-05-29T00:30:05.417Z,70.54
2017-05-29T00:30:46.202Z,71.31
2017-05-29T00:31:26.970Z,71.12
2017-05-29T00:32:07.776Z,71.31
2017-05-29T00:32:48.516Z,71.31
2017-05-29T00:33:29.266Z,71.22
2017-05-29T00:34:10.007Z,70.63
2017-05-29T00:34:50.735Z,70.92
2017-05-29T00:35:31.530Z,71.31
2017-05-29T00:36:12.254Z,71.41
2017-05-29T00:36:53.006Z,71.22
2017-05-29T00:37:33.768Z,71.02
2017-05-29T00:38:14.440Z,71.12
2017-05-29T00:38:55.257Z,71.6
2017-05-29T00:39:36.036Z,70.92
2017-05-29T00:40:16.846Z,71.31
2017-05-29T00:40:57.567Z,71.02
2017-05-29T00:41:38.321Z,71.22
2017-05-29T00:42:19.178Z,71.02
2017-05-29T00:42:59.954Z,71.22
2017-05-29T00:43:40.687Z,71.89
2017-05-29T00:44:21.499Z,71.7
2017-05-29T00:45:02.269Z,72.09
2017-05-29T00:45:43.114Z,71.7
2017-05-29T00:46:23.920Z,71.99
2017-05-29T00:47:04.734Z,71.5
2017-05-29T00:47:45.529Z,71.7
2017-05-29T00:48:26.282Z,72.09
2017-05-29T00:49:06.964Z,71.7
2017-05-29T00:49:47.778Z,71.8
2017-05-29T00:50:28.558Z,71.31
2017-05-29T00:51:09.234Z,71.7
2017-05-29T00:51:50.099Z,71.89
2017-05-29T00:52:30.931Z,71.7
2017-05-29T00:53:11.703Z,71.7
2017-05-29T00:53:52.482Z,71.6
2017-05-29T00:54:33.235Z,72.53
2017-05-29T00:55:14.050Z,73.21
2017-05-29T00:55:54.854Z,73.11
2017-05-29T00:56:35.623Z,73.02
2017-05-29T00:57:16.439Z,73.02
2017-05-29T00:59:36.973Z,73.11
2017-05-29T01:00:17.704Z,73.02
2017-05-29T01:00:58.493Z,73.02
2017-05-29T01:01:39.281Z,73.31
2017-05-29T01:02:20.032Z,73.02
2017-05-29T01:03:00.842Z,72.92
2017-05-29T01:03:41.547Z,73.11
2017-05-29T01:04:22.361Z,73.6
2017-05-29T01:05:03.075Z,73.89
2017-05-29T01:05:43.871Z,73.89
2017-05-29T01:06:24.767Z,73.69
2017-05-29T01:07:05.535Z,73.89
2017-05-29T01:07:46.288Z,74.76
2017-05-29T01:08:27.033Z,74.57
2017-05-29T01:09:07.924Z,74.18
2017-05-29T01:09:48.726Z,74.47
2017-05-29T01:10:29.469Z,74.76
2017-05-29T01:11:10.301Z,74.57
2017-05-29T01:11:51.056Z,74.38
2017-05-29T01:12:31.802Z,74.57
2017-05-29T01:13:12.554Z,73.69
2017-05-29T01:13:53.295Z,74.57
2017-05-29T01:14:34.110Z,73.89
2017-05-29T01:15:14.929Z,74.18
2017-05-29T01:15:55.723Z,74.86
2017-05-29T01:16:36.525Z,74.18
2017-05-29T01:17:17.310Z,74.28
2017-05-29T01:17:58.105Z,73.69
2017-05-29T01:18:38.889Z,73.89
2017-05-29T01:19:19.608Z,73.89
2017-05-29T01:20:00.413Z,73.89
2017-05-29T01:20:41.160Z,73.89
2017-05-29T01:21:22.021Z,73.89
2017-05-29T01:22:02.768Z,73.6
2017-05-29T01:22:43.561Z,73.5
2017-05-29T01:23:24.282Z,73.41
2017-05-29T01:24:05.120Z,73.41
2017-05-29T01:24:45.976Z,73.69
2017-05-29T01:25:26.664Z,74.18
2017-05-29T01:26:07.423Z,73.41
2017-05-29T01:26:48.181Z,73.6
2017-05-29T01:27:28.963Z,73.69
2017-05-29T01:28:09.728Z,73.5
2017-05-29T01:28:50.488Z,73.5
2017-05-29T01:29:31.335Z,73.6
2017-05-29T01:30:12.117Z,73.5
2017-05-29T01:30:52.867Z,72.83
2017-05-29T01:31:33.619Z,73.11
2017-05-29T01:32:14.422Z,73.11
2017-05-29T01:32:55.293Z,72.15
2017-05-29T01:33:36.075Z,72.44
2017-05-29T01:34:16.872Z,72.24
2017-05-29T01:34:57.646Z,71.76
2017-05-29T01:35:38.401Z,72.44
2017-05-29T01:36:19.129Z,72.05
2017-05-29T01:36:59.865Z,72.05
2017-05-29T01:37:40.635Z,71.76
2017-05-29T01:38:21.391Z,71.95
2017-05-29T01:39:02.169Z,71.95
2017-05-29T01:39:42.944Z,71.66
2017-05-29T01:40:23.713Z,72.05
2017-05-29T01:41:04.471Z,71.95
2017-05-29T01:41:45.214Z,71.86
2017-05-29T01:42:25.986Z,71.86
2017-05-29T01:43:06.737Z,71.95
2017-05-29T01:43:47.505Z,72.34
2017-05-29T01:44:28.287Z,72.05
2017-05-29T01:45:09.065Z,72.15
2017-05-29T01:45:49.836Z,72.83
2017-05-29T01:46:30.606Z,72.92
2017-05-29T01:47:11.380Z,72.83
2017-05-29T01:47:52.147Z,72.15
2017-05-29T01:48:33.017Z,72.53
2017-05-29T01:49:13.855Z,72.73
2017-05-29T01:49:54.603Z,73.11
2017-05-29T01:50:35.326Z,72.24
2017-05-29T01:51:16.104Z,72.24
2017-05-29T01:51:56.841Z,72.44
2017-05-29T01:52:37.609Z,72.73
2017-05-29T01:53:18.332Z,72.44
2017-05-29T01:53:59.103Z,72.73
2017-05-29T01:54:39.940Z,72.63
2017-05-29T01:55:20.636Z,72.63
2017-05-29T01:56:01.396Z,72.44
2017-05-29T01:56:42.190Z,72.44
2017-05-29T01:57:22.949Z,72.67
2017-05-29T01:58:03.685Z,72.24
2017-05-29T01:58:44.447Z,72.73
2017-05-29T01:59:25.245Z,72.15
2017-05-29T02:00:05.974Z,72.53
2017-05-29T02:00:46.757Z,72.24
2017-05-29T02:01:27.545Z,72.24
2017-05-29T02:02:08.344Z,71.76
2017-05-29T02:02:49.137Z,72.83
2017-05-29T02:03:29.991Z,72.24
2017-05-29T02:04:10.782Z,72.24
2017-05-29T02:04:51.545Z,72.44
2017-05-29T02:05:32.229Z,72.44
2017-05-29T02:06:13.003Z,72.15
2017-05-29T02:06:53.873Z,72.24
2017-05-29T02:07:34.649Z,72.15
2017-05-29T02:08:15.462Z,72.34
2017-05-29T02:08:56.288Z,71.76
2017-05-29T02:09:37.047Z,72.34
2017-05-29T02:10:17.799Z,72.15
2017-05-29T02:10:58.624Z,71.89
2017-05-29T02:11:39.355Z,71.89
2017-05-29T02:12:20.139Z,72.83
2017-05-29T02:13:00.886Z,72.28
2017-05-29T02:13:41.693Z,71.99
2017-05-29T02:14:22.435Z,72.05
2017-05-29T02:15:03.199Z,72.24
2017-05-29T02:15:44.001Z,71.56
2017-05-29T02:16:24.829Z,71.86
2017-05-29T02:17:05.555Z,71.86
2017-05-29T02:17:46.264Z,71.37
2017-05-29T02:18:27.055Z,70.79
2017-05-29T02:19:07.864Z,70.4
2017-05-29T02:19:48.677Z,70.6
2017-05-29T02:20:29.413Z,70.31
2017-05-29T02:21:10.153Z,69.92
2017-05-29T02:21:50.976Z,69.53
2017-05-29T02:22:31.760Z,70.5
2017-05-29T02:23:12.503Z,70.5
2017-05-29T02:23:53.197Z,70.21
2017-05-29T02:24:34.051Z,70.21
2017-05-29T02:25:14.747Z,70.5
2017-05-29T02:25:55.481Z,70.6
2017-05-29T02:26:36.296Z,70.11
2017-05-29T02:27:17.100Z,69.73
2017-05-29T02:27:57.835Z,69.73
2017-05-29T02:28:38.622Z,69.24
2017-05-29T02:29:19.426Z,69.34
2017-05-29T02:30:00.197Z,68.95
2017-05-29T02:30:40.874Z,69.24
2017-05-29T02:31:21.654Z,69.24
2017-05-29T02:32:02.394Z,69.24
2017-05-29T02:32:43.238Z,68.85
2017-05-29T02:33:23.950Z,69.24
2017-05-29T02:34:04.707Z,69.34
2017-05-29T02:34:45.477Z,69.53
2017-05-29T02:35:26.239Z,69.24
2017-05-29T02:36:06.966Z,68.99
2017-05-29T02:36:47.671Z,69.24
2017-05-29T02:37:28.416Z,68.76
2017-05-29T02:38:09.154Z,69.05
2017-05-29T02:38:49.929Z,68.85
2017-05-29T02:39:30.754Z,68.76
2017-05-29T02:40:11.504Z,68.76
2017-05-29T02:40:52.260Z,69.15
2017-05-29T02:41:32.986Z,68.66
2017-05-29T02:42:13.857Z,68.95
2017-05-29T02:42:54.661Z,69.53
2017-05-29T02:43:35.527Z,68.95
2017-05-29T02:44:16.263Z,68.99
2017-05-29T02:44:57.039Z,69.43
2017-05-29T02:45:37.845Z,69.15
2017-05-29T02:46:18.577Z,69.24
2017-05-29T02:46:59.340Z,68.85
2017-05-29T02:47:40.127Z,69.53
2017-05-29T02:48:20.890Z,69.43
2017-05-29T02:49:01.662Z,69.05
2017-05-29T02:49:42.407Z,68.95
2017-05-29T02:50:23.227Z,69.05
2017-05-29T02:51:03.942Z,69.05
2017-05-29T02:51:44.737Z,68.85
2017-05-29T02:52:25.403Z,69.15
2017-05-29T02:53:06.148Z,68.66
2017-05-29T02:53:46.890Z,68.6
2017-05-29T02:54:27.675Z,68.85
2017-05-29T02:55:08.411Z,68.66
2017-05-29T02:55:49.148Z,68.66
2017-05-29T02:56:29.916Z,68.37
2017-05-29T02:57:10.703Z,68.85
2017-05-29T02:57:51.416Z,68.66
2017-05-29T02:58:32.240Z,69.05
2017-05-29T02:59:12.975Z,69.15
2017-05-29T02:59:53.752Z,69.05
2017-05-29T03:00:34.614Z,69.24
2017-05-29T03:01:15.354Z,69.15
2017-05-29T03:01:56.155Z,69.43
2017-05-29T03:02:36.979Z,69.34
2017-05-29T03:03:17.790Z,69.43
2017-05-29T03:03:58.532Z,69.15
2017-05-29T03:04:39.249Z,69.15
2017-05-29T03:05:19.976Z,69.24
2017-05-29T03:06:00.743Z,69.34
2017-05-29T03:06:41.543Z,68.56
2017-05-29T03:07:22.273Z,68.37
2017-05-29T03:08:03.026Z,67.79
2017-05-29T03:08:43.749Z,67.4
2017-05-29T03:09:24.547Z,67.6
2017-05-29T03:10:05.364Z,67.4
2017-05-29T03:10:46.155Z,67.11
2017-05-29T03:11:26.898Z,67.4
2017-05-29T03:12:07.674Z,67.3
2017-05-29T03:12:48.399Z,67.4
2017-05-29T03:13:29.168Z,67.5
2017-05-29T03:14:09.930Z,67.11
2017-05-29T03:14:50.667Z,67.11
2017-05-29T03:15:31.478Z,66.72
2017-05-29T03:16:12.255Z,66.43
2017-05-29T03:16:53.018Z,66.34
2017-05-29T03:17:33.823Z,65.66
2017-05-29T03:18:14.555Z,65.85
2017-05-29T03:18:55.258Z,65.75
2017-05-29T03:19:36.048Z,66.05
2017-05-29T03:20:16.748Z,65.95
2017-05-29T03:20:57.552Z,66.53
2017-05-29T03:21:38.329Z,65.95
2017-05-29T03:22:19.007Z,65.85
2017-05-29T03:22:59.837Z,65.37
2017-05-29T03:23:40.607Z,66.43
2017-05-29T03:24:21.407Z,65.85
2017-05-29T03:25:02.096Z,65.95
2017-05-29T03:25:42.926Z,65.37
2017-05-29T03:26:23.629Z,65.47
2017-05-29T03:27:04.393Z,65.27
2017-05-29T03:27:45.183Z,66.05
2017-05-29T03:28:25.937Z,66.05
2017-05-29T03:29:06.746Z,65.47
2017-05-29T03:29:47.448Z,65.08
2017-05-29T03:30:28.157Z,65.47
2017-05-29T03:31:08.928Z,65.56
2017-05-29T03:31:49.783Z,65.56
2017-05-29T03:32:30.556Z,65.47
2017-05-29T03:33:11.355Z,65.47
2017-05-29T03:33:52.081Z,65.56
2017-05-29T03:34:32.829Z,65.27
2017-05-29T03:35:13.549Z,65.37
2017-05-29T03:35:54.291Z,65.66
2017-05-29T03:36:35.074Z,65.85
2017-05-29T03:37:15.805Z,65.47
2017-05-29T03:37:56.544Z,65.37
2017-05-29T03:38:37.337Z,65.37
2017-05-29T03:39:18.098Z,65.47
2017-05-29T03:39:58.923Z,65.08
2017-05-29T03:40:39.662Z,65.08
2017-05-29T03:41:20.476Z,64.79
2017-05-29T03:42:01.212Z,65.17
2017-05-29T03:42:41.920Z,65.27
2017-05-29T03:43:22.729Z,64.98
2017-05-29T03:44:03.423Z,65.17
2017-05-29T03:44:44.133Z,65.08
2017-05-29T03:45:24.902Z,65.27
2017-05-29T03:46:05.638Z,64.79
2017-05-29T03:46:46.460Z,65.27
2017-05-29T03:47:27.257Z,65.37
2017-05-29T03:48:07.965Z,65.27
2017-05-29T03:48:48.844Z,65.27
2017-05-29T03:49:29.561Z,65.17
2017-05-29T03:50:10.402Z,65.37
2017-05-29T03:50:51.122Z,65.27
2017-05-29T03:51:31.864Z,65.56
2017-05-29T03:52:12.601Z,65.37
2017-05-29T03:52:53.359Z,65.27
2017-05-29T03:53:34.180Z,65.37
2017-05-29T03:54:15.000Z,65.27
2017-05-29T03:54:55.756Z,64.89
2017-05-29T03:55:36.556Z,64.98
2017-05-29T03:56:17.222Z,64.89
2017-05-29T03:56:58.032Z,64.98
2017-05-29T03:57:38.753Z,65.17
2017-05-29T03:58:19.499Z,64.98
2017-05-29T03:59:00.278Z,64.98
2017-05-29T03:59:41.004Z,64.98
2017-05-29T04:00:21.773Z,65.27
2017-05-29T04:01:02.636Z,65.56
2017-05-29T04:01:43.483Z,65.17
2017-05-29T04:02:24.263Z,64.89
2017-05-29T04:03:05.058Z,64.98
2017-05-29T04:03:45.830Z,64.79
2017-05-29T04:04:26.669Z,65.08
2017-05-29T04:05:07.457Z,65.27
2017-05-29T04:05:48.288Z,65.08
2017-05-29T04:06:29.039Z,64.89
2017-05-29T04:07:09.787Z,64.89
2017-05-29T04:07:50.549Z,66.05
2017-05-29T04:08:31.334Z,64.89
2017-05-29T04:09:12.135Z,64.89
2017-05-29T04:09:53.822Z,65.08
2017-05-29T04:10:34.586Z,65.08
2017-05-29T04:11:15.299Z,64.59
2017-05-29T04:11:56.018Z,64.98
2017-05-29T04:12:36.762Z,65.17
2017-05-29T04:13:17.530Z,64.89
2017-05-29T04:13:58.236Z,64.98
2017-05-29T04:14:39.093Z,64.89
2017-05-29T04:15:19.796Z,65.17
2017-05-29T04:16:00.630Z,65.17
2017-05-29T04:16:41.385Z,64.98
2017-05-29T04:17:22.233Z,64.98
2017-05-29T04:18:03.075Z,65.17
2017-05-29T04:18:43.868Z,65.27
2017-05-29T04:19:24.582Z,65.08
2017-05-29T04:20:05.315Z,64.89
2017-05-29T04:20:46.116Z,64.98
2017-05-29T04:21:26.917Z,64.5
2017-05-29T04:22:07.610Z,64.89
2017-05-29T04:22:48.466Z,65.08
2017-05-29T04:23:29.200Z,65.08
2017-05-29T04:24:09.942Z,65.27
2017-05-29T04:24:50.736Z,64.3
2017-05-29T04:25:31.559Z,64.79
2017-05-29T04:26:12.238Z,63.82
2017-05-29T04:26:53.015Z,64.69
2017-05-29T04:27:33.750Z,64.59
2017-05-29T04:28:14.589Z,64.01
2017-05-29T04:28:55.326Z,64.11
2017-05-29T04:29:36.068Z,64.01
2017-05-29T04:30:16.851Z,64.2
2017-05-29T04:30:57.668Z,64.01
2017-05-29T04:31:38.387Z,64.4
2017-05-29T04:32:19.121Z,64.2
2017-05-29T04:32:59.938Z,64.01
2017-05-29T04:33:40.741Z,64.2
2017-05-29T04:34:21.538Z,64.01
2017-05-29T04:35:02.288Z,63.92
2017-05-29T04:35:43.057Z,63.82
2017-05-29T04:36:23.843Z,63.72
2017-05-29T04:37:04.615Z,64.01
2017-05-29T04:37:45.393Z,63.72
2017-05-29T04:38:26.149Z,63.82
2017-05-29T04:39:06.983Z,63.43
2017-05-29T04:39:47.772Z,64.2
2017-05-29T04:40:28.455Z,64.01
2017-05-29T04:41:09.325Z,63.34
2017-05-29T04:41:50.100Z,64.2
2017-05-29T04:42:30.831Z,63.43
2017-05-29T04:43:11.604Z,63.34
2017-05-29T04:43:52.314Z,63.72
2017-05-29T04:44:33.054Z,64.11
2017-05-29T04:45:13.901Z,64.2
2017-05-29T04:45:54.592Z,64.79
2017-05-29T04:46:35.428Z,64.79
2017-05-29T04:47:16.205Z,65.08
2017-05-29T04:47:56.973Z,64.98
2017-05-29T04:48:37.770Z,65.92
2017-05-29T04:49:18.483Z,65.92
2017-05-29T04:49:59.266Z,66.2
2017-05-29T04:50:40.099Z,65.53
2017-05-29T04:51:20.942Z,65.43
2017-05-29T04:52:01.651Z,65.53
2017-05-29T04:52:42.435Z,65.92
2017-05-29T04:53:23.179Z,65.75
2017-05-29T04:54:03.952Z,65.85
2017-05-29T04:54:44.798Z,65.82
2017-05-29T04:55:25.588Z,65.63
2017-05-29T04:56:06.326Z,65.92
2017-05-29T04:56:47.035Z,65.92
2017-05-29T04:57:27.832Z,65.37
2017-05-29T04:58:08.644Z,65.66
2017-05-29T04:58:49.419Z,64.98
2017-05-29T04:59:30.171Z,65.08
2017-05-29T05:00:10.930Z,64.89
2017-05-29T05:00:51.693Z,64.59
2017-05-29T05:01:32.437Z,64.79
2017-05-29T05:02:13.238Z,64.98
2017-05-29T05:02:54.000Z,64.69
2017-05-29T05:03:34.757Z,64.79
2017-05-29T05:04:15.617Z,64.98
2017-05-29T05:04:56.377Z,64.69
2017-05-29T05:05:37.236Z,64.98
2017-05-29T05:06:17.994Z,64.79
2017-05-29T05:06:58.718Z,65.27
2017-05-29T05:07:39.445Z,64.89
2017-05-29T05:08:20.215Z,64.89
2017-05-29T05:09:00.980Z,65.08
2017-05-29T05:09:41.804Z,64.89
2017-05-29T05:10:22.576Z,65.27
2017-05-29T05:11:03.315Z,65.27
2017-05-29T05:11:44.126Z,64.98
2017-05-29T05:12:24.946Z,64.89
2017-05-29T05:13:05.673Z,64.89
2017-05-29T05:13:46.500Z,64.98
2017-05-29T05:14:27.243Z,64.89
2017-05-29T05:15:07.987Z,64.98
2017-05-29T05:15:48.752Z,65.08
2017-05-29T05:16:29.559Z,65.08
2017-05-29T05:17:10.345Z,65.17
2017-05-29T05:17:51.170Z,65.27
2017-05-29T05:18:31.938Z,65.17
2017-05-29T05:19:12.741Z,64.59
2017-05-29T05:19:53.587Z,64.3
2017-05-29T05:20:34.344Z,64.89
2017-05-29T05:21:15.079Z,64.01
2017-05-29T05:21:55.906Z,64.4
2017-05-29T05:22:36.742Z,64.11
2017-05-29T05:23:17.563Z,64.2
2017-05-29T05:23:58.361Z,63.92
2017-05-29T05:24:39.188Z,64.2
2017-05-29T05:25:19.947Z,64.11
2017-05-29T05:26:00.783Z,63.53
2017-05-29T05:26:41.598Z,64.11
2017-05-29T05:27:22.380Z,63.92
2017-05-29T05:28:03.143Z,63.72
2017-05-29T05:30:18.697Z,63.72
2017-05-29T05:30:59.441Z,63.34
2017-05-29T05:31:40.240Z,62.66
2017-05-29T05:32:21.051Z,62.46
2017-05-29T05:33:01.843Z,62.75
2017-05-29T05:33:42.584Z,63.34
2017-05-29T05:34:23.335Z,63.14
2017-05-29T05:35:04.070Z,62.85
2017-05-29T05:35:44.808Z,62.46
2017-05-29T05:36:25.566Z,62.46
2017-05-29T05:37:06.395Z,62.46
2017-05-29T05:37:47.158Z,62.46
2017-05-29T05:38:27.930Z,62.46
2017-05-29T05:39:08.807Z,62.85
2017-05-29T05:39:49.583Z,62.46
2017-05-29T05:40:30.367Z,62.72
2017-05-29T05:41:11.180Z,62.43
2017-05-29T05:41:52.050Z,62.34
2017-05-29T05:42:32.764Z,62.75
2017-05-29T05:43:13.547Z,62.85
2017-05-29T05:43:54.357Z,62.27
2017-05-29T05:44:35.055Z,62.66
2017-05-29T05:45:15.832Z,62.37
2017-05-29T05:45:56.652Z,61.88
2017-05-29T05:46:37.406Z,62.17
2017-05-29T05:47:18.207Z,61.69
2017-05-29T05:47:58.908Z,61.95
2017-05-29T05:48:39.709Z,61.76
2017-05-29T05:49:20.517Z,61.95
2017-05-29T05:50:01.259Z,62.14
2017-05-29T05:50:41.991Z,61.76
2017-05-29T05:51:22.749Z,62.17
2017-05-29T05:52:03.512Z,61.49
2017-05-29T05:52:44.225Z,61.11
2017-05-29T05:53:25.045Z,60.91
2017-05-29T05:54:05.796Z,61.21
2017-05-29T05:54:46.580Z,61.49
2017-05-29T05:55:27.328Z,61.21
2017-05-29T05:56:08.137Z,61.01
2017-05-29T05:56:48.920Z,61.3
2017-05-29T05:57:29.749Z,61.21
2017-05-29T05:58:10.526Z,61.3
2017-05-29T05:58:51.192Z,61.49
2017-05-29T05:59:46.638Z,61.21
2017-05-29T06:00:27.468Z,60.91
2017-05-29T06:01:08.326Z,61.3
2017-05-29T06:01:49.039Z,61.49
2017-05-29T06:02:29.722Z,61.21
2017-05-29T06:03:10.527Z,61.49
2017-05-29T06:03:51.334Z,61.21
2017-05-29T06:04:32.039Z,61.3
2017-05-29T06:05:12.788Z,61.21
2017-05-29T06:05:53.527Z,61.59
2017-05-29T06:06:34.308Z,61.4
2017-05-29T06:07:15.144Z,61.79
2017-05-29T06:07:55.973Z,62.17
2017-05-29T06:08:36.772Z,61.69
2017-05-29T06:09:17.522Z,61.98
2017-05-29T06:09:58.254Z,61.98
2017-05-29T06:10:39.075Z,61.79
2017-05-29T06:11:20.057Z,62.37
2017-05-29T06:12:00.942Z,62.17
2017-05-29T06:12:41.660Z,62.46
2017-05-29T06:13:22.383Z,62.59
2017-05-29T06:14:03.185Z,62.27
2017-05-29T06:14:43.926Z,62.56
2017-05-29T06:15:24.681Z,62.3
2017-05-29T06:16:05.516Z,62.85
2017-05-29T06:16:46.232Z,62.56
2017-05-29T06:17:26.963Z,62.4
2017-05-29T06:18:07.794Z,62.3
2017-05-29T06:18:48.574Z,62.56
2017-05-29T06:19:29.403Z,62.1
2017-05-29T06:20:10.133Z,62.59
2017-05-29T06:20:50.967Z,62.37
2017-05-29T06:21:31.738Z,61.82
2017-05-29T06:22:12.561Z,61.88
2017-05-29T06:22:53.373Z,62.07
2017-05-29T06:23:34.184Z,62.4
2017-05-29T06:24:14.975Z,61.91
2017-05-29T06:24:55.647Z,61.82
2017-05-29T06:25:36.410Z,61.91
2017-05-29T06:26:17.182Z,62.1
2017-05-29T06:26:58.197Z,61.4
2017-05-29T06:27:39.455Z,61.52
2017-05-29T06:28:20.439Z,61.24
2017-05-29T06:29:02.131Z,61.43
2017-05-29T06:29:57.604Z,61.04
2017-05-29T06:30:38.564Z,61.33
2017-05-29T06:31:19.287Z,61.14
2017-05-29T06:32:00.074Z,61.04
2017-05-29T06:32:40.870Z,61.14
2017-05-29T06:33:21.606Z,61.24
2017-05-29T06:34:02.327Z,60.85
2017-05-29T06:34:43.120Z,61.07
2017-05-29T06:35:23.938Z,60.78
2017-05-29T06:36:04.829Z,61.07
2017-05-29T06:36:45.625Z,60.58
2017-05-29T06:37:26.443Z,60.2
2017-05-29T06:38:07.208Z,60.88
2017-05-29T06:38:48.015Z,59.81
2017-05-29T06:39:28.735Z,59.91
2017-05-29T06:40:09.515Z,60.81
2017-05-29T06:40:50.305Z,60.13
2017-05-29T06:41:31.144Z,59.64
2017-05-29T06:42:11.946Z,60.13
2017-05-29T06:42:52.727Z,60.13
2017-05-29T06:43:33.595Z,59.84
2017-05-29T06:44:14.389Z,59.74
2017-05-29T06:44:55.150Z,59.84
2017-05-29T06:45:35.934Z,59.84
2017-05-29T06:46:16.803Z,59.55
2017-05-29T06:46:57.640Z,59.36
2017-05-29T06:47:38.462Z,59.55
2017-05-29T06:48:19.273Z,59.45
2017-05-29T06:49:00.060Z,59.84
2017-05-29T06:49:40.868Z,60.13
2017-05-29T06:50:21.683Z,60.13
2017-05-29T06:51:02.510Z,60.42
2017-05-29T06:51:43.326Z,60.42
2017-05-29T06:52:24.509Z,60.42
2017-05-29T06:53:05.290Z,59.84
2017-05-29T06:53:46.076Z,60.23
2017-05-29T06:54:26.841Z,60.03
2017-05-29T06:55:07.667Z,59.94
2017-05-29T06:55:48.422Z,60.13
2017-05-29T06:56:29.227Z,59.84
2017-05-29T06:57:10.034Z,60.13
2017-05-29T06:57:53.938Z,59.84
2017-05-29T06:58:34.689Z,59.94
2017-05-29T06:59:15.425Z,59.74
2017-05-29T06:59:56.257Z,59.84
2017-05-29T07:00:36.984Z,60.03
2017-05-29T07:01:17.780Z,60.42
2017-05-29T07:01:58.579Z,61.29
2017-05-29T07:02:39.349Z,60.61
2017-05-29T07:03:20.127Z,60.42
2017-05-29T07:04:00.864Z,60.52
2017-05-29T07:04:41.582Z,60.81
2017-05-29T07:05:22.400Z,61.39
2017-05-29T07:06:03.196Z,61.29
2017-05-29T07:06:43.943Z,60.91
2017-05-29T07:07:24.802Z,61.29
2017-05-29T07:08:05.548Z,61.58
2017-05-29T07:08:46.273Z,61.88
2017-05-29T07:09:27.090Z,61.88
2017-05-29T07:10:07.827Z,61.88
2017-05-29T07:10:48.601Z,62.46
2017-05-29T07:11:29.404Z,61.88
2017-05-29T07:12:10.124Z,61.78
2017-05-29T07:12:50.995Z,62.46
2017-05-29T07:13:31.721Z,61.39
2017-05-29T07:14:12.434Z,61.29
2017-05-29T07:14:53.368Z,61.29
2017-05-29T07:15:34.169Z,61.29
2017-05-29T07:16:15.011Z,61.17
2017-05-29T07:16:55.863Z,61.68
2017-05-29T07:17:36.697Z,61.29
2017-05-29T07:18:17.471Z,61.29
2017-05-29T07:18:58.268Z,61.29
2017-05-29T07:19:38.975Z,62.04
2017-05-29T07:20:19.757Z,62.52
2017-05-29T07:21:00.572Z,62.82
2017-05-29T07:21:41.320Z,63.75
2017-05-29T07:22:22.166Z,64.01
2017-05-29T07:23:02.948Z,64.11
2017-05-29T07:23:44.032Z,64.11
2017-05-29T07:24:25.106Z,63.82
2017-05-29T07:25:06.149Z,63.62
2017-05-29T07:25:46.982Z,63.95
2017-05-29T07:26:27.735Z,63.56
2017-05-29T07:27:08.540Z,63.56
2017-05-29T07:27:49.377Z,63.56
2017-05-29T07:28:30.121Z,63.27
2017-05-29T07:29:10.916Z,63.56
2017-05-29T07:29:51.624Z,63.65
2017-05-29T07:30:32.416Z,63.56
2017-05-29T07:31:13.286Z,63.56
2017-05-29T07:31:54.144Z,64.04
2017-05-29T07:32:34.932Z,63.95
2017-05-29T07:33:15.699Z,63.59
2017-05-29T07:33:56.417Z,63.88
2017-05-29T07:34:37.243Z,63.75
2017-05-29T07:35:17.974Z,63.88
2017-05-29T07:35:59.755Z,63.65
2017-05-29T07:36:40.504Z,63.56
2017-05-29T07:37:21.288Z,63.65
2017-05-29T07:38:02.093Z,63.75
2017-05-29T07:38:42.855Z,63.82
2017-05-29T07:39:23.634Z,63.27
2017-05-29T07:40:04.386Z,62.69
2017-05-29T07:40:45.150Z,62.91
2017-05-29T07:41:25.892Z,62.62
2017-05-29T07:42:06.639Z,62.43
2017-05-29T07:42:47.361Z,62.72
2017-05-29T07:43:28.107Z,62.98
2017-05-29T07:44:08.930Z,62.69
2017-05-29T07:44:49.771Z,62.98
2017-05-29T07:45:30.581Z,63.17
2017-05-29T07:46:11.355Z,62.98
2017-05-29T07:46:52.111Z,63.56
2017-05-29T07:47:32.895Z,63.56
2017-05-29T07:48:13.763Z,63.53
2017-05-29T07:48:54.421Z,63.56
2017-05-29T07:49:35.176Z,63.95
2017-05-29T07:50:15.911Z,63.34
2017-05-29T07:50:56.762Z,63.56
2017-05-29T07:51:37.575Z,63.56
2017-05-29T07:52:18.319Z,63.53
2017-05-29T07:52:59.162Z,63.34
2017-05-29T07:53:39.883Z,63.62
2017-05-29T07:54:20.693Z,63.72
2017-05-29T07:55:01.394Z,63.56
2017-05-29T07:55:42.189Z,63.27
2017-05-29T07:56:22.985Z,63.62
2017-05-29T07:57:03.764Z,63.62
2017-05-29T07:57:44.504Z,63.92
2017-05-29T07:58:25.304Z,63.82
2017-05-29T07:59:06.022Z,63.82
2017-05-29T07:59:46.848Z,63.37
2017-05-29T08:00:27.622Z,63.37
2017-05-29T08:01:08.394Z,63.37
2017-05-29T08:01:49.181Z,62.4
2017-05-29T08:02:29.930Z,62.49
2017-05-29T08:03:10.804Z,63.07
2017-05-29T08:03:51.648Z,62.72
2017-05-29T08:04:32.475Z,62.88
2017-05-29T08:05:13.243Z,62.62
2017-05-29T08:05:54.061Z,63.01
2017-05-29T08:06:34.860Z,62.52
2017-05-29T08:07:15.621Z,62.69
2017-05-29T08:07:56.419Z,62.69
2017-05-29T08:08:37.162Z,62.4
2017-05-29T08:09:17.934Z,62.98
2017-05-29T08:09:58.697Z,63.43
2017-05-29T08:10:39.452Z,63.34
2017-05-29T08:11:20.262Z,63.72
2017-05-29T08:12:01.067Z,63.65
2017-05-29T08:12:41.843Z,63.46
2017-05-29T08:13:22.546Z,63.82
2017-05-29T08:14:03.338Z,63.75
2017-05-29T08:14:44.101Z,63.95
2017-05-29T08:15:24.860Z,63.75
2017-05-29T08:16:05.652Z,63.56
2017-05-29T08:16:46.387Z,63.95
2017-05-29T08:17:27.103Z,63.85
2017-05-29T08:18:07.881Z,63.95
2017-05-29T08:18:48.657Z,64.53
2017-05-29T08:19:29.508Z,64.04
2017-05-29T08:20:10.349Z,64.04
2017-05-29T08:20:51.080Z,64.14
2017-05-29T08:21:31.975Z,64.04
2017-05-29T08:22:12.648Z,64.2
2017-05-29T08:22:53.437Z,64.04
2017-05-29T08:23:34.167Z,64.14
2017-05-29T08:24:14.902Z,64.04
2017-05-29T08:24:55.631Z,64.14
2017-05-29T08:25:36.421Z,64.04
2017-05-29T08:26:17.247Z,63.37
2017-05-29T08:26:57.982Z,63.85
2017-05-29T08:27:38.747Z,63.85
2017-05-29T08:28:19.633Z,63.37
2017-05-29T08:29:00.448Z,64.24
2017-05-29T08:29:41.179Z,64.34
2017-05-29T08:30:21.915Z,64.24
2017-05-29T08:31:02.691Z,63.88
2017-05-29T08:31:43.483Z,63.49
2017-05-29T08:32:24.237Z,63.78
2017-05-29T08:33:05.129Z,63.75
2017-05-29T08:33:45.946Z,63.88
2017-05-29T08:34:26.689Z,63.59
2017-05-29T08:35:07.409Z,63.78
2017-05-29T08:35:48.262Z,63.78
2017-05-29T08:36:29.034Z,63.69
2017-05-29T08:37:09.820Z,63.78
2017-05-29T08:37:50.587Z,63.59
2017-05-29T08:38:31.363Z,62.82
2017-05-29T08:39:12.123Z,63.1
2017-05-29T08:39:52.911Z,63.88
2017-05-29T08:40:33.788Z,64.17
2017-05-29T08:41:14.499Z,64.56
2017-05-29T08:41:55.298Z,64.85
2017-05-29T08:42:36.050Z,64.85
2017-05-29T08:43:16.833Z,64.95
2017-05-29T08:43:57.583Z,65.43
2017-05-29T08:44:38.320Z,65.24
2017-05-29T08:45:19.080Z,66.02
2017-05-29T08:45:59.903Z,64.95
2017-05-29T08:46:40.631Z,65.14
2017-05-29T08:47:21.348Z,65.01
2017-05-29T08:48:02.180Z,65.53
2017-05-29T08:48:43.026Z,65.5
2017-05-29T08:49:23.813Z,65.3
2017-05-29T08:50:04.488Z,65.2